sensor_id;sensor_type;location;lat;lon;timestamp;P1;durP1;ratioP1;P2;durP2;ratioP2
14165;SDS011;7162;52.422;13.754;2022-12-20T00:02:13;21.10;;;6.80;;
14165;SDS011;7162;52.422;13.754;2022-12-20T00:04:40;15.40;;;6.83;;
14165;SDS011;7162;52.422;13.754;2022-12-20T00:07:07;13.80;;;5.57;;
14165;SDS011;7162;52.422;13.754;2022-12-20T00:09:35;13.43;;;6.20;;
14165;SDS011;7162;52.422;13.754;2022-12-20T00:12:02;15.73;;;5.77;;
14165;SDS011;7162;52.422;13.754;2022-12-20T00:14:29;16.77;;;6.27;;
14165;SDS011;7162;52.422;13.754;2022-12-20T00:16:56;13.70;;;6.77;;
14165;SDS011;7162;52.422;13.754;2022-12-20T00:19:23;12.90;;;5.50;;
14165;SDS011;7162;52.422;13.754;2022-12-20T00:21:50;10.57;;;5.83;;
14165;SDS011;7162;52.422;13.754;2022-12-20T00:24:17;15.20;;;7.00;;
14165;SDS011;7162;52.422;13.754;2022-12-20T00:26:45;19.70;;;6.27;;
14165;SDS011;7162;52.422;13.754;2022-12-20T00:29:12;16.57;;;6.37;;
14165;SDS011;7162;52.422;13.754;2022-12-20T00:31:39;12.43;;;5.90;;
14165;SDS011;7162;52.422;13.754;2022-12-20T00:34:07;17.87;;;6.13;;
14165;SDS011;7162;52.422;13.754;2022-12-20T00:36:35;21.43;;;6.17;;
14165;SDS011;7162;52.422;13.754;2022-12-20T00:39:02;13.50;;;5.20;;
14165;SDS011;7162;52.422;13.754;2022-12-20T00:41:30;17.73;;;5.40;;
14165;SDS011;7162;52.422;13.754;2022-12-20T00:43:58;12.77;;;6.20;;
14165;SDS011;7162;52.422;13.754;2022-12-20T00:46:26;8.97;;;4.93;;
14165;SDS011;7162;52.422;13.754;2022-12-20T00:48:53;10.23;;;5.63;;
14165;SDS011;7162;52.422;13.754;2022-12-20T00:51:22;13.83;;;5.40;;
14165;SDS011;7162;52.422;13.754;2022-12-20T00:53:50;12.23;;;5.70;;
14165;SDS011;7162;52.422;13.754;2022-12-20T00:56:17;15.80;;;6.90;;
14165;SDS011;7162;52.422;13.754;2022-12-20T00:58:44;17.57;;;6.10;;
14165;SDS011;7162;52.422;13.754;2022-12-20T01:01:17;15.47;;;6.53;;
14165;SDS011;7162;52.422;13.754;2022-12-20T01:03:44;12.53;;;5.80;;
14165;SDS011;7162;52.422;13.754;2022-12-20T01:06:11;10.23;;;5.80;;
14165;SDS011;7162;52.422;13.754;2022-12-20T01:08:38;10.03;;;5.10;;
14165;SDS011;7162;52.422;13.754;2022-12-20T01:11:07;13.67;;;6.07;;
14165;SDS011;7162;52.422;13.754;2022-12-20T01:13:35;10.33;;;5.10;;
14165;SDS011;7162;52.422;13.754;2022-12-20T01:16:03;11.83;;;5.90;;
14165;SDS011;7162;52.422;13.754;2022-12-20T01:18:32;9.03;;;5.00;;
14165;SDS011;7162;52.422;13.754;2022-12-20T01:20:59;18.50;;;5.87;;
14165;SDS011;7162;52.422;13.754;2022-12-20T01:23:27;13.17;;;5.27;;
14165;SDS011;7162;52.422;13.754;2022-12-20T01:25:56;15.30;;;6.20;;
14165;SDS011;7162;52.422;13.754;2022-12-20T01:28:23;14.43;;;4.90;;
14165;SDS011;7162;52.422;13.754;2022-12-20T01:30:50;11.23;;;5.60;;
14165;SDS011;7162;52.422;13.754;2022-12-20T01:33:17;11.80;;;5.33;;
14165;SDS011;7162;52.422;13.754;2022-12-20T01:35:54;17.73;;;5.87;;
14165;SDS011;7162;52.422;13.754;2022-12-20T01:38:22;11.30;;;5.27;;
14165;SDS011;7162;52.422;13.754;2022-12-20T01:40:49;15.87;;;6.03;;
14165;SDS011;7162;52.422;13.754;2022-12-20T01:43:17;18.20;;;5.53;;
14165;SDS011;7162;52.422;13.754;2022-12-20T01:48:13;11.90;;;5.53;;
14165;SDS011;7162;52.422;13.754;2022-12-20T01:50:40;14.63;;;6.30;;
14165;SDS011;7162;52.422;13.754;2022-12-20T01:53:09;9.27;;;5.03;;
14165;SDS011;7162;52.422;13.754;2022-12-20T01:55:36;12.30;;;5.70;;
14165;SDS011;7162;52.422;13.754;2022-12-20T01:58:04;10.17;;;5.50;;
14165;SDS011;7162;52.422;13.754;2022-12-20T02:00:31;12.47;;;5.30;;
14165;SDS011;7162;52.422;13.754;2022-12-20T02:02:59;13.00;;;5.67;;
14165;SDS011;7162;52.422;13.754;2022-12-20T02:05:27;12.43;;;5.30;;
14165;SDS011;7162;52.422;13.754;2022-12-20T02:07:55;9.43;;;5.77;;
14165;SDS011;7162;52.422;13.754;2022-12-20T02:10:26;19.37;;;6.23;;
14165;SDS011;7162;52.422;13.754;2022-12-20T02:12:57;8.77;;;5.37;;
14165;SDS011;7162;52.422;13.754;2022-12-20T02:15:29;9.60;;;5.50;;
14165;SDS011;7162;52.422;13.754;2022-12-20T02:18:05;10.87;;;6.10;;
14165;SDS011;7162;52.422;13.754;2022-12-20T02:23:21;17.40;;;5.33;;
14165;SDS011;7162;52.422;13.754;2022-12-20T02:25:54;9.53;;;4.80;;
14165;SDS011;7162;52.422;13.754;2022-12-20T02:28:33;8.70;;;4.73;;
14165;SDS011;7162;52.422;13.754;2022-12-20T02:31:07;15.43;;;4.93;;
14165;SDS011;7162;52.422;13.754;2022-12-20T02:33:36;10.70;;;4.80;;
14165;SDS011;7162;52.422;13.754;2022-12-20T02:36:05;14.60;;;5.50;;
14165;SDS011;7162;52.422;13.754;2022-12-20T02:38:33;13.43;;;5.67;;
14165;SDS011;7162;52.422;13.754;2022-12-20T02:41:01;13.40;;;5.30;;
14165;SDS011;7162;52.422;13.754;2022-12-20T02:43:30;16.53;;;5.50;;
14165;SDS011;7162;52.422;13.754;2022-12-20T02:46:16;10.23;;;4.20;;
14165;SDS011;7162;52.422;13.754;2022-12-20T02:48:45;9.90;;;4.60;;
14165;SDS011;7162;52.422;13.754;2022-12-20T02:51:13;8.63;;;4.60;;
14165;SDS011;7162;52.422;13.754;2022-12-20T02:53:41;9.80;;;5.13;;
14165;SDS011;7162;52.422;13.754;2022-12-20T02:56:10;12.60;;;4.90;;
14165;SDS011;7162;52.422;13.754;2022-12-20T02:58:39;10.30;;;4.87;;
14165;SDS011;7162;52.422;13.754;2022-12-20T03:01:09;10.60;;;5.37;;
14165;SDS011;7162;52.422;13.754;2022-12-20T03:03:38;13.57;;;4.90;;
14165;SDS011;7162;52.422;13.754;2022-12-20T03:06:05;11.50;;;5.20;;
14165;SDS011;7162;52.422;13.754;2022-12-20T03:08:32;10.63;;;5.00;;
14165;SDS011;7162;52.422;13.754;2022-12-20T03:10:59;8.40;;;4.90;;
14165;SDS011;7162;52.422;13.754;2022-12-20T03:13:26;16.70;;;5.40;;
14165;SDS011;7162;52.422;13.754;2022-12-20T03:15:54;10.00;;;5.33;;
14165;SDS011;7162;52.422;13.754;2022-12-20T03:18:21;12.20;;;6.00;;
14165;SDS011;7162;52.422;13.754;2022-12-20T03:20:49;13.87;;;5.77;;
14165;SDS011;7162;52.422;13.754;2022-12-20T03:23:16;10.67;;;5.03;;
14165;SDS011;7162;52.422;13.754;2022-12-20T03:25:43;12.10;;;5.10;;
14165;SDS011;7162;52.422;13.754;2022-12-20T03:28:10;13.97;;;5.43;;
14165;SDS011;7162;52.422;13.754;2022-12-20T03:30:37;10.17;;;4.30;;
14165;SDS011;7162;52.422;13.754;2022-12-20T03:33:04;9.67;;;5.10;;
14165;SDS011;7162;52.422;13.754;2022-12-20T03:35:31;10.17;;;5.10;;
14165;SDS011;7162;52.422;13.754;2022-12-20T03:37:59;17.33;;;5.47;;
14165;SDS011;7162;52.422;13.754;2022-12-20T03:40:26;11.73;;;5.20;;
14165;SDS011;7162;52.422;13.754;2022-12-20T03:42:53;11.30;;;5.03;;
14165;SDS011;7162;52.422;13.754;2022-12-20T03:45:20;12.90;;;5.70;;
14165;SDS011;7162;52.422;13.754;2022-12-20T03:47:47;11.33;;;4.27;;
14165;SDS011;7162;52.422;13.754;2022-12-20T03:50:14;10.93;;;4.97;;
14165;SDS011;7162;52.422;13.754;2022-12-20T03:52:41;10.53;;;4.67;;
14165;SDS011;7162;52.422;13.754;2022-12-20T03:55:10;10.03;;;5.03;;
14165;SDS011;7162;52.422;13.754;2022-12-20T03:57:37;9.20;;;4.60;;
14165;SDS011;7162;52.422;13.754;2022-12-20T04:00:05;8.70;;;4.70;;
14165;SDS011;7162;52.422;13.754;2022-12-20T04:02:32;13.47;;;5.90;;
14165;SDS011;7162;52.422;13.754;2022-12-20T04:04:59;10.63;;;4.73;;
14165;SDS011;7162;52.422;13.754;2022-12-20T04:07:26;6.97;;;3.93;;
14165;SDS011;7162;52.422;13.754;2022-12-20T04:09:53;12.57;;;4.30;;
14165;SDS011;7162;52.422;13.754;2022-12-20T04:12:21;11.47;;;5.47;;
14165;SDS011;7162;52.422;13.754;2022-12-20T04:14:48;13.37;;;5.70;;
14165;SDS011;7162;52.422;13.754;2022-12-20T04:17:15;10.90;;;4.90;;
14165;SDS011;7162;52.422;13.754;2022-12-20T04:19:42;12.87;;;5.20;;
14165;SDS011;7162;52.422;13.754;2022-12-20T04:22:09;14.00;;;5.50;;
14165;SDS011;7162;52.422;13.754;2022-12-20T04:24:36;12.13;;;5.70;;
14165;SDS011;7162;52.422;13.754;2022-12-20T04:27:03;12.67;;;5.27;;
14165;SDS011;7162;52.422;13.754;2022-12-20T04:29:32;9.10;;;5.27;;
14165;SDS011;7162;52.422;13.754;2022-12-20T04:31:59;12.67;;;5.70;;
14165;SDS011;7162;52.422;13.754;2022-12-20T04:34:25;8.73;;;4.93;;
14165;SDS011;7162;52.422;13.754;2022-12-20T04:36:53;9.70;;;5.50;;
14165;SDS011;7162;52.422;13.754;2022-12-20T04:39:20;11.43;;;5.20;;
14165;SDS011;7162;52.422;13.754;2022-12-20T04:41:46;10.40;;;5.20;;
14165;SDS011;7162;52.422;13.754;2022-12-20T04:44:13;11.30;;;4.87;;
14165;SDS011;7162;52.422;13.754;2022-12-20T04:46:42;10.90;;;4.70;;
14165;SDS011;7162;52.422;13.754;2022-12-20T04:49:09;8.27;;;4.60;;
14165;SDS011;7162;52.422;13.754;2022-12-20T04:51:36;9.73;;;5.47;;
14165;SDS011;7162;52.422;13.754;2022-12-20T04:54:03;11.20;;;4.73;;
14165;SDS011;7162;52.422;13.754;2022-12-20T04:56:29;9.10;;;4.30;;
14165;SDS011;7162;52.422;13.754;2022-12-20T04:58:57;7.17;;;4.27;;
14165;SDS011;7162;52.422;13.754;2022-12-20T05:01:24;8.40;;;4.10;;
14165;SDS011;7162;52.422;13.754;2022-12-20T05:03:52;10.83;;;4.50;;
14165;SDS011;7162;52.422;13.754;2022-12-20T05:06:20;12.67;;;5.17;;
14165;SDS011;7162;52.422;13.754;2022-12-20T05:08:47;12.43;;;5.10;;
14165;SDS011;7162;52.422;13.754;2022-12-20T05:11:14;8.07;;;4.50;;
14165;SDS011;7162;52.422;13.754;2022-12-20T05:13:41;11.60;;;5.00;;
14165;SDS011;7162;52.422;13.754;2022-12-20T05:16:08;12.10;;;5.30;;
14165;SDS011;7162;52.422;13.754;2022-12-20T05:18:35;10.00;;;4.43;;
14165;SDS011;7162;52.422;13.754;2022-12-20T05:21:04;6.77;;;4.40;;
14165;SDS011;7162;52.422;13.754;2022-12-20T05:23:49;10.10;;;4.77;;
14165;SDS011;7162;52.422;13.754;2022-12-20T05:26:35;14.77;;;5.17;;
14165;SDS011;7162;52.422;13.754;2022-12-20T05:29:02;8.73;;;4.70;;
14165;SDS011;7162;52.422;13.754;2022-12-20T05:31:29;10.80;;;5.23;;
14165;SDS011;7162;52.422;13.754;2022-12-20T05:33:56;11.00;;;4.60;;
14165;SDS011;7162;52.422;13.754;2022-12-20T05:36:25;10.10;;;4.67;;
14165;SDS011;7162;52.422;13.754;2022-12-20T05:38:52;9.10;;;4.70;;
14165;SDS011;7162;52.422;13.754;2022-12-20T05:41:19;9.07;;;5.00;;
14165;SDS011;7162;52.422;13.754;2022-12-20T05:43:46;12.97;;;5.63;;
14165;SDS011;7162;52.422;13.754;2022-12-20T05:46:13;8.73;;;4.10;;
14165;SDS011;7162;52.422;13.754;2022-12-20T05:48:40;11.73;;;5.07;;
14165;SDS011;7162;52.422;13.754;2022-12-20T05:51:07;9.70;;;4.97;;
14165;SDS011;7162;52.422;13.754;2022-12-20T05:53:36;8.13;;;4.87;;
14165;SDS011;7162;52.422;13.754;2022-12-20T05:56:03;9.63;;;4.20;;
14165;SDS011;7162;52.422;13.754;2022-12-20T05:58:30;11.67;;;5.50;;
14165;SDS011;7162;52.422;13.754;2022-12-20T06:00:58;7.30;;;4.80;;
14165;SDS011;7162;52.422;13.754;2022-12-20T06:03:26;8.40;;;4.27;;
14165;SDS011;7162;52.422;13.754;2022-12-20T06:05:53;12.87;;;4.27;;
14165;SDS011;7162;52.422;13.754;2022-12-20T06:08:20;12.00;;;4.90;;
14165;SDS011;7162;52.422;13.754;2022-12-20T06:10:49;17.77;;;4.67;;
14165;SDS011;7162;52.422;13.754;2022-12-20T06:13:16;7.90;;;4.70;;
14165;SDS011;7162;52.422;13.754;2022-12-20T06:15:43;16.33;;;4.30;;
14165;SDS011;7162;52.422;13.754;2022-12-20T06:18:10;12.20;;;5.23;;
14165;SDS011;7162;52.422;13.754;2022-12-20T06:20:37;9.30;;;4.10;;
14165;SDS011;7162;52.422;13.754;2022-12-20T06:23:05;15.07;;;4.60;;
14165;SDS011;7162;52.422;13.754;2022-12-20T06:25:33;10.73;;;4.97;;
14165;SDS011;7162;52.422;13.754;2022-12-20T06:28:03;14.60;;;4.40;;
14165;SDS011;7162;52.422;13.754;2022-12-20T06:30:31;6.70;;;4.30;;
14165;SDS011;7162;52.422;13.754;2022-12-20T06:32:59;11.13;;;5.00;;
14165;SDS011;7162;52.422;13.754;2022-12-20T06:35:26;9.07;;;4.43;;
14165;SDS011;7162;52.422;13.754;2022-12-20T06:37:53;9.80;;;4.80;;
14165;SDS011;7162;52.422;13.754;2022-12-20T06:40:20;10.10;;;5.03;;
14165;SDS011;7162;52.422;13.754;2022-12-20T06:42:47;14.20;;;5.60;;
14165;SDS011;7162;52.422;13.754;2022-12-20T06:45:15;9.60;;;4.60;;
14165;SDS011;7162;52.422;13.754;2022-12-20T06:47:42;8.73;;;4.90;;
14165;SDS011;7162;52.422;13.754;2022-12-20T06:50:09;11.30;;;5.03;;
14165;SDS011;7162;52.422;13.754;2022-12-20T06:52:36;16.60;;;7.40;;
14165;SDS011;7162;52.422;13.754;2022-12-20T06:55:04;16.63;;;5.70;;
14165;SDS011;7162;52.422;13.754;2022-12-20T06:57:31;9.33;;;4.60;;
14165;SDS011;7162;52.422;13.754;2022-12-20T06:59:58;10.63;;;4.50;;
14165;SDS011;7162;52.422;13.754;2022-12-20T07:02:26;8.90;;;4.57;;
14165;SDS011;7162;52.422;13.754;2022-12-20T07:04:53;14.93;;;4.77;;
14165;SDS011;7162;52.422;13.754;2022-12-20T07:07:20;8.70;;;4.20;;
14165;SDS011;7162;52.422;13.754;2022-12-20T07:09:47;9.43;;;5.10;;
14165;SDS011;7162;52.422;13.754;2022-12-20T07:12:14;11.23;;;4.70;;
14165;SDS011;7162;52.422;13.754;2022-12-20T07:14:41;9.80;;;5.10;;
14165;SDS011;7162;52.422;13.754;2022-12-20T07:17:08;9.00;;;4.40;;
14165;SDS011;7162;52.422;13.754;2022-12-20T07:19:37;9.97;;;5.30;;
14165;SDS011;7162;52.422;13.754;2022-12-20T07:22:04;10.33;;;5.73;;
14165;SDS011;7162;52.422;13.754;2022-12-20T07:24:31;12.00;;;6.27;;
14165;SDS011;7162;52.422;13.754;2022-12-20T07:26:59;12.33;;;5.80;;
14165;SDS011;7162;52.422;13.754;2022-12-20T07:29:26;11.93;;;5.70;;
14165;SDS011;7162;52.422;13.754;2022-12-20T07:31:53;10.50;;;5.20;;
14165;SDS011;7162;52.422;13.754;2022-12-20T07:34:20;9.10;;;4.97;;
14165;SDS011;7162;52.422;13.754;2022-12-20T07:36:49;9.33;;;4.70;;
14165;SDS011;7162;52.422;13.754;2022-12-20T07:39:16;12.40;;;4.87;;
14165;SDS011;7162;52.422;13.754;2022-12-20T07:41:43;17.20;;;6.80;;
14165;SDS011;7162;52.422;13.754;2022-12-20T07:44:10;13.40;;;5.97;;
14165;SDS011;7162;52.422;13.754;2022-12-20T07:46:37;14.27;;;5.97;;
14165;SDS011;7162;52.422;13.754;2022-12-20T07:49:04;11.07;;;5.40;;
14165;SDS011;7162;52.422;13.754;2022-12-20T07:51:32;11.93;;;5.83;;
14165;SDS011;7162;52.422;13.754;2022-12-20T07:54:02;8.23;;;5.00;;
14165;SDS011;7162;52.422;13.754;2022-12-20T07:56:30;11.60;;;5.83;;
14165;SDS011;7162;52.422;13.754;2022-12-20T07:58:58;9.30;;;4.63;;
14165;SDS011;7162;52.422;13.754;2022-12-20T08:01:26;11.03;;;4.83;;
14165;SDS011;7162;52.422;13.754;2022-12-20T08:03:55;14.63;;;4.83;;
14165;SDS011;7162;52.422;13.754;2022-12-20T08:06:25;10.20;;;4.43;;
14165;SDS011;7162;52.422;13.754;2022-12-20T08:08:52;14.70;;;4.97;;
14165;SDS011;7162;52.422;13.754;2022-12-20T08:11:23;15.93;;;5.50;;
14165;SDS011;7162;52.422;13.754;2022-12-20T08:13:51;10.90;;;5.77;;
14165;SDS011;7162;52.422;13.754;2022-12-20T08:16:18;11.57;;;5.53;;
14165;SDS011;7162;52.422;13.754;2022-12-20T08:18:45;11.13;;;5.93;;
14165;SDS011;7162;52.422;13.754;2022-12-20T08:21:12;14.23;;;5.87;;
14165;SDS011;7162;52.422;13.754;2022-12-20T08:23:39;11.57;;;4.97;;
14165;SDS011;7162;52.422;13.754;2022-12-20T08:26:07;10.27;;;5.33;;
14165;SDS011;7162;52.422;13.754;2022-12-20T08:28:35;13.20;;;5.83;;
14165;SDS011;7162;52.422;13.754;2022-12-20T08:31:02;14.57;;;6.43;;
14165;SDS011;7162;52.422;13.754;2022-12-20T08:33:30;17.80;;;5.40;;
14165;SDS011;7162;52.422;13.754;2022-12-20T08:35:57;12.20;;;5.10;;
14165;SDS011;7162;52.422;13.754;2022-12-20T08:38:25;17.80;;;6.03;;
14165;SDS011;7162;52.422;13.754;2022-12-20T08:40:51;13.50;;;5.70;;
14165;SDS011;7162;52.422;13.754;2022-12-20T08:43:19;18.13;;;6.80;;
14165;SDS011;7162;52.422;13.754;2022-12-20T08:45:51;14.83;;;5.27;;
14165;SDS011;7162;52.422;13.754;2022-12-20T08:48:19;18.10;;;6.47;;
14165;SDS011;7162;52.422;13.754;2022-12-20T08:50:46;11.20;;;5.37;;
14165;SDS011;7162;52.422;13.754;2022-12-20T08:53:13;13.07;;;6.63;;
14165;SDS011;7162;52.422;13.754;2022-12-20T08:55:40;17.80;;;6.77;;
14165;SDS011;7162;52.422;13.754;2022-12-20T08:58:07;17.53;;;6.50;;
14165;SDS011;7162;52.422;13.754;2022-12-20T09:00:34;17.27;;;6.70;;
14165;SDS011;7162;52.422;13.754;2022-12-20T09:03:03;12.70;;;6.50;;
14165;SDS011;7162;52.422;13.754;2022-12-20T09:05:31;19.17;;;7.17;;
14165;SDS011;7162;52.422;13.754;2022-12-20T09:07:58;15.53;;;7.10;;
14165;SDS011;7162;52.422;13.754;2022-12-20T09:10:26;12.77;;;5.70;;
14165;SDS011;7162;52.422;13.754;2022-12-20T09:12:53;11.60;;;6.27;;
14165;SDS011;7162;52.422;13.754;2022-12-20T09:15:20;20.13;;;6.27;;
14165;SDS011;7162;52.422;13.754;2022-12-20T09:17:47;15.53;;;6.60;;
14165;SDS011;7162;52.422;13.754;2022-12-20T09:20:15;13.63;;;5.80;;
14165;SDS011;7162;52.422;13.754;2022-12-20T09:22:42;14.20;;;5.70;;
14165;SDS011;7162;52.422;13.754;2022-12-20T09:25:09;14.90;;;6.77;;
14165;SDS011;7162;52.422;13.754;2022-12-20T09:27:36;12.87;;;5.90;;
14165;SDS011;7162;52.422;13.754;2022-12-20T09:30:03;14.63;;;6.60;;
14165;SDS011;7162;52.422;13.754;2022-12-20T09:32:31;20.97;;;7.40;;
14165;SDS011;7162;52.422;13.754;2022-12-20T09:34:58;20.77;;;7.20;;
14165;SDS011;7162;52.422;13.754;2022-12-20T09:37:28;17.87;;;7.60;;
14165;SDS011;7162;52.422;13.754;2022-12-20T09:39:55;17.43;;;7.33;;
14165;SDS011;7162;52.422;13.754;2022-12-20T09:42:23;17.10;;;7.70;;
14165;SDS011;7162;52.422;13.754;2022-12-20T09:44:51;25.17;;;8.27;;
14165;SDS011;7162;52.422;13.754;2022-12-20T09:47:21;17.40;;;6.60;;
14165;SDS011;7162;52.422;13.754;2022-12-20T09:49:50;15.00;;;6.40;;
14165;SDS011;7162;52.422;13.754;2022-12-20T09:52:23;15.50;;;7.63;;
14165;SDS011;7162;52.422;13.754;2022-12-20T09:54:54;18.03;;;7.77;;
14165;SDS011;7162;52.422;13.754;2022-12-20T09:57:24;25.00;;;7.50;;
14165;SDS011;7162;52.422;13.754;2022-12-20T09:59:54;20.27;;;8.37;;
14165;SDS011;7162;52.422;13.754;2022-12-20T10:02:22;19.57;;;6.90;;
14165;SDS011;7162;52.422;13.754;2022-12-20T10:04:49;22.17;;;7.37;;
14165;SDS011;7162;52.422;13.754;2022-12-20T10:07:21;18.77;;;7.57;;
14165;SDS011;7162;52.422;13.754;2022-12-20T10:09:56;27.80;;;8.60;;
14165;SDS011;7162;52.422;13.754;2022-12-20T10:12:30;19.73;;;7.90;;
14165;SDS011;7162;52.422;13.754;2022-12-20T10:15:03;20.07;;;8.97;;
14165;SDS011;7162;52.422;13.754;2022-12-20T10:17:40;18.70;;;7.73;;
14165;SDS011;7162;52.422;13.754;2022-12-20T10:20:17;19.10;;;7.73;;
14165;SDS011;7162;52.422;13.754;2022-12-20T10:22:49;20.73;;;7.30;;
14165;SDS011;7162;52.422;13.754;2022-12-20T10:25:19;17.60;;;8.10;;
14165;SDS011;7162;52.422;13.754;2022-12-20T10:27:47;18.13;;;6.93;;
14165;SDS011;7162;52.422;13.754;2022-12-20T10:30:17;21.10;;;7.40;;
14165;SDS011;7162;52.422;13.754;2022-12-20T10:32:45;22.67;;;8.67;;
14165;SDS011;7162;52.422;13.754;2022-12-20T10:35:17;14.70;;;7.10;;
14165;SDS011;7162;52.422;13.754;2022-12-20T10:37:55;17.30;;;6.87;;
14165;SDS011;7162;52.422;13.754;2022-12-20T10:40:26;13.03;;;6.00;;
14165;SDS011;7162;52.422;13.754;2022-12-20T10:42:54;18.53;;;6.90;;
14165;SDS011;7162;52.422;13.754;2022-12-20T10:45:33;18.33;;;6.70;;
14165;SDS011;7162;52.422;13.754;2022-12-20T10:48:04;21.20;;;8.07;;
14165;SDS011;7162;52.422;13.754;2022-12-20T10:50:35;21.73;;;8.37;;
14165;SDS011;7162;52.422;13.754;2022-12-20T10:53:18;14.00;;;6.37;;
14165;SDS011;7162;52.422;13.754;2022-12-20T10:55:47;19.23;;;6.63;;
14165;SDS011;7162;52.422;13.754;2022-12-20T10:58:15;22.63;;;7.50;;
14165;SDS011;7162;52.422;13.754;2022-12-20T11:00:43;20.70;;;8.30;;
14165;SDS011;7162;52.422;13.754;2022-12-20T11:03:12;16.10;;;6.47;;
14165;SDS011;7162;52.422;13.754;2022-12-20T11:05:42;22.27;;;7.37;;
14165;SDS011;7162;52.422;13.754;2022-12-20T11:08:18;12.60;;;6.27;;
14165;SDS011;7162;52.422;13.754;2022-12-20T11:10:49;16.13;;;7.37;;
14165;SDS011;7162;52.422;13.754;2022-12-20T11:13:21;19.47;;;7.63;;
14165;SDS011;7162;52.422;13.754;2022-12-20T11:15:50;16.93;;;7.53;;
14165;SDS011;7162;52.422;13.754;2022-12-20T11:18:22;18.07;;;7.93;;
14165;SDS011;7162;52.422;13.754;2022-12-20T11:20:52;20.93;;;7.33;;
14165;SDS011;7162;52.422;13.754;2022-12-20T11:23:24;18.83;;;7.23;;
14165;SDS011;7162;52.422;13.754;2022-12-20T11:26:03;19.90;;;7.10;;
14165;SDS011;7162;52.422;13.754;2022-12-20T11:28:38;17.03;;;7.13;;
14165;SDS011;7162;52.422;13.754;2022-12-20T11:31:13;17.07;;;6.70;;
14165;SDS011;7162;52.422;13.754;2022-12-20T11:36:37;17.53;;;6.60;;
14165;SDS011;7162;52.422;13.754;2022-12-20T11:39:07;15.63;;;5.87;;
14165;SDS011;7162;52.422;13.754;2022-12-20T11:41:46;13.97;;;6.30;;
14165;SDS011;7162;52.422;13.754;2022-12-20T11:44:28;14.00;;;6.30;;
14165;SDS011;7162;52.422;13.754;2022-12-20T11:47:10;21.67;;;7.57;;
14165;SDS011;7162;52.422;13.754;2022-12-20T11:49:49;17.87;;;6.90;;
14165;SDS011;7162;52.422;13.754;2022-12-20T11:52:23;12.07;;;6.77;;
14165;SDS011;7162;52.422;13.754;2022-12-20T11:54:56;19.47;;;7.43;;
14165;SDS011;7162;52.422;13.754;2022-12-20T11:57:26;19.77;;;6.77;;
14165;SDS011;7162;52.422;13.754;2022-12-20T12:00:00;22.53;;;6.00;;
14165;SDS011;7162;52.422;13.754;2022-12-20T12:02:30;16.73;;;6.63;;
14165;SDS011;7162;52.422;13.754;2022-12-20T12:05:00;15.37;;;6.87;;
14165;SDS011;7162;52.422;13.754;2022-12-20T12:07:30;17.53;;;6.67;;
14165;SDS011;7162;52.422;13.754;2022-12-20T12:09:59;16.30;;;6.63;;
14165;SDS011;7162;52.422;13.754;2022-12-20T12:12:30;16.43;;;7.10;;
14165;SDS011;7162;52.422;13.754;2022-12-20T12:14:59;15.73;;;7.80;;
14165;SDS011;7162;52.422;13.754;2022-12-20T12:17:30;19.00;;;7.97;;
14165;SDS011;7162;52.422;13.754;2022-12-20T12:20:07;11.00;;;5.97;;
14165;SDS011;7162;52.422;13.754;2022-12-20T12:22:40;22.23;;;7.50;;
14165;SDS011;7162;52.422;13.754;2022-12-20T12:25:10;17.20;;;7.00;;
14165;SDS011;7162;52.422;13.754;2022-12-20T12:27:41;14.87;;;6.63;;
14165;SDS011;7162;52.422;13.754;2022-12-20T12:30:11;11.63;;;5.90;;
14165;SDS011;7162;52.422;13.754;2022-12-20T12:32:39;17.80;;;7.40;;
14165;SDS011;7162;52.422;13.754;2022-12-20T12:35:11;13.83;;;7.30;;
14165;SDS011;7162;52.422;13.754;2022-12-20T12:37:46;16.00;;;7.30;;
14165;SDS011;7162;52.422;13.754;2022-12-20T12:40:25;14.57;;;5.70;;
14165;SDS011;7162;52.422;13.754;2022-12-20T12:43:06;18.17;;;7.30;;
14165;SDS011;7162;52.422;13.754;2022-12-20T12:45:36;18.67;;;6.50;;
14165;SDS011;7162;52.422;13.754;2022-12-20T12:48:05;15.90;;;6.30;;
14165;SDS011;7162;52.422;13.754;2022-12-20T12:50:35;11.90;;;6.27;;
14165;SDS011;7162;52.422;13.754;2022-12-20T12:53:03;14.30;;;6.97;;
14165;SDS011;7162;52.422;13.754;2022-12-20T12:55:37;17.13;;;6.90;;
14165;SDS011;7162;52.422;13.754;2022-12-20T12:58:13;13.30;;;6.30;;
14165;SDS011;7162;52.422;13.754;2022-12-20T13:00:47;20.00;;;7.60;;
14165;SDS011;7162;52.422;13.754;2022-12-20T13:03:19;11.13;;;6.20;;
14165;SDS011;7162;52.422;13.754;2022-12-20T13:08:46;13.73;;;6.63;;
14165;SDS011;7162;52.422;13.754;2022-12-20T13:11:14;12.90;;;6.30;;
14165;SDS011;7162;52.422;13.754;2022-12-20T13:16:40;15.23;;;6.03;;
14165;SDS011;7162;52.422;13.754;2022-12-20T13:19:11;14.50;;;6.40;;
14165;SDS011;7162;52.422;13.754;2022-12-20T13:21:42;15.83;;;6.83;;
14165;SDS011;7162;52.422;13.754;2022-12-20T13:27:25;16.07;;;7.13;;
14165;SDS011;7162;52.422;13.754;2022-12-20T13:33:01;15.97;;;7.00;;
14165;SDS011;7162;52.422;13.754;2022-12-20T13:35:30;14.27;;;6.30;;
14165;SDS011;7162;52.422;13.754;2022-12-20T13:37:58;14.00;;;7.10;;
14165;SDS011;7162;52.422;13.754;2022-12-20T13:40:30;21.87;;;8.23;;
14165;SDS011;7162;52.422;13.754;2022-12-20T13:43:01;12.83;;;6.40;;
14165;SDS011;7162;52.422;13.754;2022-12-20T13:45:31;13.00;;;7.03;;
14165;SDS011;7162;52.422;13.754;2022-12-20T13:48:00;13.40;;;6.73;;
14165;SDS011;7162;52.422;13.754;2022-12-20T13:50:30;14.00;;;7.03;;
14165;SDS011;7162;52.422;13.754;2022-12-20T13:53:17;18.37;;;7.17;;
14165;SDS011;7162;52.422;13.754;2022-12-20T13:55:56;35.37;;;15.93;;
14165;SDS011;7162;52.422;13.754;2022-12-20T13:58:29;16.57;;;7.47;;
14165;SDS011;7162;52.422;13.754;2022-12-20T14:01:12;13.90;;;6.30;;
14165;SDS011;7162;52.422;13.754;2022-12-20T14:04:12;15.30;;;6.70;;
14165;SDS011;7162;52.422;13.754;2022-12-20T14:07:03;16.20;;;7.37;;
14165;SDS011;7162;52.422;13.754;2022-12-20T14:09:38;18.87;;;7.50;;
14165;SDS011;7162;52.422;13.754;2022-12-20T14:12:11;15.10;;;6.30;;
14165;SDS011;7162;52.422;13.754;2022-12-20T14:14:50;17.00;;;7.40;;
14165;SDS011;7162;52.422;13.754;2022-12-20T14:17:33;11.93;;;6.50;;
14165;SDS011;7162;52.422;13.754;2022-12-20T14:20:20;19.53;;;7.77;;
14165;SDS011;7162;52.422;13.754;2022-12-20T14:23:02;17.00;;;6.80;;
14165;SDS011;7162;52.422;13.754;2022-12-20T14:25:47;23.10;;;7.53;;
14165;SDS011;7162;52.422;13.754;2022-12-20T14:28:27;14.87;;;6.70;;
14165;SDS011;7162;52.422;13.754;2022-12-20T14:31:24;16.70;;;6.93;;
14165;SDS011;7162;52.422;13.754;2022-12-20T14:34:10;16.80;;;6.67;;
14165;SDS011;7162;52.422;13.754;2022-12-20T14:36:40;15.90;;;7.30;;
14165;SDS011;7162;52.422;13.754;2022-12-20T14:39:21;14.53;;;7.20;;
14165;SDS011;7162;52.422;13.754;2022-12-20T14:41:54;13.50;;;6.00;;
14165;SDS011;7162;52.422;13.754;2022-12-20T14:44:21;19.77;;;6.23;;
14165;SDS011;7162;52.422;13.754;2022-12-20T14:46:49;20.50;;;8.10;;
14165;SDS011;7162;52.422;13.754;2022-12-20T14:49:22;15.10;;;6.60;;
14165;SDS011;7162;52.422;13.754;2022-12-20T14:51:53;14.27;;;6.40;;
14165;SDS011;7162;52.422;13.754;2022-12-20T14:54:33;17.13;;;7.47;;
14165;SDS011;7162;52.422;13.754;2022-12-20T14:57:01;23.23;;;7.10;;
14165;SDS011;7162;52.422;13.754;2022-12-20T14:59:28;17.50;;;7.83;;
14165;SDS011;7162;52.422;13.754;2022-12-20T15:01:56;22.27;;;8.00;;
14165;SDS011;7162;52.422;13.754;2022-12-20T15:04:24;19.90;;;7.37;;
14165;SDS011;7162;52.422;13.754;2022-12-20T15:06:57;14.50;;;7.07;;
14165;SDS011;7162;52.422;13.754;2022-12-20T15:09:24;27.80;;;10.60;;
14165;SDS011;7162;52.422;13.754;2022-12-20T15:11:52;21.57;;;8.97;;